DLH631 OMDB-EDDF
Flight info
| Callsign | DLH631 |
|---|---|
| Flight time | N/A |
| Altitude | 33000 |
| Route | ANVIX L223 TARDI N629 BOTAM Y855 LAKLU/N0496F320 Q204 NALKI G652 TOKRA DCT ALROK DCT BOSOB/N0490F340 DCT ITRUX Y511 PMA Z712 WEJ L677 RAGPU/N0479F360 L677 GESON Q777 RASDA DCT OTHON DCT VAXOS DCT RDS UL609 MES DCT EVIVI DCT OKANA/N0467F380 DCT BABIT DCT ARSIN DCT SUBEN T161 DEBHI DEBHI1B |
| Aircraft | A343/H-SDE2E3FGHIJ4J5M1RWXY/LB1D1 |
Departure
| Time | 2026-04-24 14:43 |
|---|---|
| Airport | Dubai International Airport (OMDB) |
Arrival
| Time | N/A |
|---|---|
| Airport | Frankfurt Main Airport (EDDF) |
| Time | Latitude | Longitude | Altitude | Speed | Heading |
|---|---|---|---|---|---|
| 2026-04-24 13:58 | 25.26054 | 55.34205 | 27 ft | 0 kts | 211° |
| 2026-04-24 14:16 | 25.26072 | 55.34217 | 29 ft | 4 kts | 211° |
| 2026-04-24 14:17 | 25.26118 | 55.34247 | 32 ft | 4 kts | 196° |
| 2026-04-24 14:17 | 25.26142 | 55.34247 | 26 ft | 4 kts | 143° |
| 2026-04-24 14:17 | 25.26169 | 55.34205 | 26 ft | 4 kts | 122° |
| 2026-04-24 14:18 | 25.26174 | 55.34197 | 27 ft | 0 kts | 122° |
| 2026-04-24 14:30 | 25.26170 | 55.34205 | 32 ft | 4 kts | 122° |
| 2026-04-24 14:31 | 25.26151 | 55.34239 | 28 ft | 6 kts | 122° |
| 2026-04-24 14:31 | 25.26129 | 55.34277 | 30 ft | 7 kts | 122° |
| 2026-04-24 14:31 | 25.26103 | 55.34323 | 30 ft | 7 kts | 122° |
| 2026-04-24 14:31 | 25.26077 | 55.34370 | 27 ft | 8 kts | 122° |
| 2026-04-24 14:32 | 25.26046 | 55.34425 | 26 ft | 10 kts | 122° |
| 2026-04-24 14:32 | 25.26008 | 55.34493 | 28 ft | 10 kts | 122° |
| 2026-04-24 14:32 | 25.25970 | 55.34560 | 29 ft | 10 kts | 122° |
| 2026-04-24 14:32 | 25.25933 | 55.34625 | 30 ft | 10 kts | 122° |
| 2026-04-24 14:33 | 25.25894 | 55.34695 | 27 ft | 12 kts | 122° |
| 2026-04-24 14:33 | 25.25845 | 55.34782 | 30 ft | 14 kts | 122° |
| 2026-04-24 14:33 | 25.25795 | 55.34870 | 29 ft | 14 kts | 122° |
| 2026-04-24 14:33 | 25.25750 | 55.34954 | 27 ft | 12 kts | 111° |
| 2026-04-24 14:34 | 25.25775 | 55.35008 | 28 ft | 8 kts | 46° |
| 2026-04-24 14:34 | 25.25824 | 55.35044 | 30 ft | 9 kts | 31° |
| 2026-04-24 14:34 | 25.25886 | 55.35086 | 30 ft | 12 kts | 32° |
| 2026-04-24 14:34 | 25.25964 | 55.35139 | 30 ft | 14 kts | 32° |
| 2026-04-24 14:35 | 25.26062 | 55.35205 | 29 ft | 17 kts | 31° |
| 2026-04-24 14:35 | 25.26134 | 55.35286 | 30 ft | 14 kts | 86° |
| 2026-04-24 14:35 | 25.26091 | 55.35374 | 28 ft | 13 kts | 122° |
| 2026-04-24 14:35 | 25.26037 | 55.35471 | 29 ft | 18 kts | 122° |
| 2026-04-24 14:36 | 25.25966 | 55.35596 | 26 ft | 20 kts | 122° |
| 2026-04-24 14:36 | 25.25895 | 55.35722 | 28 ft | 19 kts | 122° |
| 2026-04-24 14:36 | 25.25818 | 55.35860 | 29 ft | 22 kts | 122° |
| 2026-04-24 14:36 | 25.25740 | 55.35998 | 32 ft | 21 kts | 122° |
| 2026-04-24 14:37 | 25.25666 | 55.36130 | 26 ft | 20 kts | 122° |
| 2026-04-24 14:37 | 25.25594 | 55.36260 | 29 ft | 19 kts | 122° |
| 2026-04-24 14:37 | 25.25523 | 55.36385 | 30 ft | 19 kts | 122° |
| 2026-04-24 14:37 | 25.25455 | 55.36506 | 26 ft | 18 kts | 122° |
| 2026-04-24 14:38 | 25.25389 | 55.36623 | 27 ft | 18 kts | 122° |
| 2026-04-24 14:38 | 25.25317 | 55.36751 | 27 ft | 20 kts | 122° |
| 2026-04-24 14:38 | 25.25247 | 55.36875 | 32 ft | 19 kts | 122° |
| 2026-04-24 14:38 | 25.25179 | 55.36996 | 26 ft | 18 kts | 122° |
| 2026-04-24 14:39 | 25.25112 | 55.37115 | 26 ft | 18 kts | 122° |
| 2026-04-24 14:39 | 25.25048 | 55.37229 | 30 ft | 17 kts | 122° |
| 2026-04-24 14:39 | 25.24985 | 55.37340 | 30 ft | 17 kts | 122° |
| 2026-04-24 14:39 | 25.24925 | 55.37448 | 29 ft | 16 kts | 122° |
| 2026-04-24 14:40 | 25.24861 | 55.37561 | 28 ft | 19 kts | 122° |
| 2026-04-24 14:40 | 25.24792 | 55.37683 | 30 ft | 18 kts | 122° |
| 2026-04-24 14:40 | 25.24726 | 55.37801 | 29 ft | 18 kts | 122° |
| 2026-04-24 14:40 | 25.24671 | 55.37901 | 30 ft | 11 kts | 118° |
| 2026-04-24 14:41 | 25.24685 | 55.37968 | 31 ft | 10 kts | 47° |
| 2026-04-24 14:41 | 25.24749 | 55.38013 | 26 ft | 11 kts | 31° |
| 2026-04-24 14:41 | 25.24812 | 55.38006 | 30 ft | 10 kts | 321° |
| 2026-04-24 14:41 | 25.24847 | 55.37951 | 27 ft | 0 kts | 301° |
| 2026-04-24 14:42 | 25.24848 | 55.37949 | 26 ft | 3 kts | 301° |
| 2026-04-24 14:42 | 25.24998 | 55.37679 | 31 ft | 64 kts | 302° |
| 2026-04-24 14:42 | 25.25310 | 55.37119 | 31 ft | 106 kts | 301° |
| 2026-04-24 14:42 | 25.25755 | 55.36317 | 26 ft | 140 kts | 301° |
| 2026-04-24 14:43 | 25.26318 | 55.35305 | 32 ft | 168 kts | 302° |
| 2026-04-24 14:43 | 25.26921 | 55.34202 | 428 ft | 167 kts | 301° |
| 2026-04-24 14:43 | 25.27495 | 55.33080 | 924 ft | 166 kts | 299° |
| 2026-04-24 14:43 | 25.28065 | 55.31934 | 1287 ft | 174 kts | 301° |
| 2026-04-24 14:44 | 25.28734 | 55.30757 | 1466 ft | 193 kts | 303° |
| 2026-04-24 14:44 | 25.29229 | 55.29295 | 1585 ft | 218 kts | 272° |
| 2026-04-24 14:44 | 25.28865 | 55.27605 | 1842 ft | 238 kts | 248° |
| 2026-04-24 14:44 | 25.28134 | 55.25893 | 2272 ft | 251 kts | 245° |
| 2026-04-24 14:45 | 25.27357 | 55.24163 | 2994 ft | 246 kts | 245° |
| 2026-04-24 14:45 | 25.26612 | 55.22474 | 3774 ft | 243 kts | 245° |
| 2026-04-24 14:45 | 25.25891 | 55.20810 | 4456 ft | 242 kts | 245° |
| 2026-04-24 14:45 | 25.25163 | 55.19131 | 5108 ft | 242 kts | 244° |
| 2026-04-24 14:46 | 25.24246 | 55.17562 | 5741 ft | 243 kts | 231° |
| 2026-04-24 14:46 | 25.22969 | 55.16274 | 6080 ft | 258 kts | 211° |
| 2026-04-24 14:46 | 25.21212 | 55.15694 | 6385 ft | 274 kts | 180° |
| 2026-04-24 14:46 | 25.19390 | 55.16290 | 6835 ft | 284 kts | 147° |